»·PEaware :: N101UD TQPF-KCOD

N101UD :: TQPF-KCOD

FLIGHT INFORMATION

Flight Status: Arrived
Operator: Privately registered:
United States
More flights under this callsign
Pilot: Alan J. (5709)
Aircraft: BOMBARDIER BD-100 CHALLENGER 300
(CL30)
More flights by this aircraft type
Origin: TQPF Wallblake
Anguilla
Destination: KCOD Yellowstone Regl
United States
More flights between these airports :: More routes between these airports
Route: JAAWS PAMMS G446 CASPR YULEE J45 PLESS J45 IRK DPR CZI
File this flight plan on PilotEdge
Remarks:
Altitude:
(Current/Filed)
43,000ft
Speed:
(Current/Filed)
470kts
Departed: 23-May-17 03:17 PM
Arrived: 23-May-17 04:12 PM
Distance/Time
Traveled:
2783nm/0:55
Distance/Time
To Go:
Arrived

Flight Plot

Page will automatically refresh every two minutes.

Flight plan parsing failed; only flown route is shown


Map Options




Map Legend


Flown Route
Filed Route
Departure Airport
Arrival Airport
Navaid (VOR, NDB)
Fix

Horizontal Profiles

Position Reports

Time Latitude Longitude Heading Altitude Ground
Speed
23-May-17 15:18 43.613045 -98.672956 312 43006ft 453kts
23-May-17 15:19 44.837104 -101.192823 316 43087ft 449kts
23-May-17 15:20 44.903368 -101.335631 316 43092ft 436kts
23-May-17 15:21 44.968975 -101.477430 316 43092ft 437kts
23-May-17 15:22 45.034811 -101.620732 314 43088ft 442kts
23-May-17 15:23 45.062190 -101.797406 276 43085ft 504kts
23-May-17 15:24 45.023047 -101.993125 262 43103ft 525kts
23-May-17 15:25 44.980807 -102.188458 263 43096ft 525kts
23-May-17 15:26 44.939276 -102.385285 264 43110ft 527kts
23-May-17 15:27 44.897544 -102.582196 264 43131ft 530kts
23-May-17 15:28 44.855369 -102.779480 263 43126ft 532kts
23-May-17 15:29 44.812517 -102.977998 263 43129ft 534kts
23-May-17 15:30 44.769263 -103.176512 262 43133ft 534kts
23-May-17 15:31 44.725899 -103.373606 262 43149ft 530kts
23-May-17 15:32 44.682281 -103.570061 263 43162ft 527kts
23-May-17 15:33 44.639013 -103.763227 262 43158ft 523kts
23-May-17 15:34 44.595483 -103.955398 263 43142ft 516kts
23-May-17 15:35 44.552676 -104.143029 264 43138ft 492kts
23-May-17 15:36 44.511323 -104.323223 264 43145ft 489kts
23-May-17 15:37 44.469663 -104.502963 264 43147ft 487kts
23-May-17 15:38 44.428160 -104.680546 263 43148ft 485kts
23-May-17 15:39 44.386251 -104.858393 263 43171ft 484kts
23-May-17 15:40 44.344225 -105.035509 262 43178ft 484kts
23-May-17 15:41 44.301766 -105.212776 262 43178ft 483kts
23-May-17 15:42 44.259216 -105.389014 262 43179ft 483kts
23-May-17 15:43 44.216306 -105.565435 262 43180ft 483kts
23-May-17 15:44 44.173444 -105.740322 261 43181ft 484kts
23-May-17 15:45 44.129849 -105.916814 261 43182ft 484kts
23-May-17 15:46 44.086069 -106.092721 261 43184ft 485kts
23-May-17 15:47 44.041931 -106.268708 261 43197ft 485kts
23-May-17 15:48 44.010727 -106.448381 281 41593ft 474kts
23-May-17 15:49 44.038305 -106.615967 297 39080ft 438kts
23-May-17 15:50 44.066451 -106.749338 296 37010ft 438kts
23-May-17 15:51 44.104856 -106.932491 296 34052ft 414kts
23-May-17 15:52 44.131448 -107.059433 294 31962ft 419kts
23-May-17 15:53 44.164223 -107.217667 293 29429ft 434kts
23-May-17 15:54 44.202662 -107.405075 292 26453ft 434kts
23-May-17 15:55 44.229776 -107.538294 291 24394ft 425kts
23-May-17 15:56 44.260441 -107.690248 290 24120ft 407kts
23-May-17 15:57 44.290919 -107.841968 290 24110ft 413kts
23-May-17 15:58 44.326971 -108.023090 290 24103ft 419kts
23-May-17 15:59 44.357863 -108.179659 290 24102ft 422kts
23-May-17 16:00 44.360591 -108.315713 269 24028ft 424kts
23-May-17 16:01 44.346215 -108.481023 268 22249ft 432kts
23-May-17 16:02 44.330820 -108.653495 268 20128ft 355kts
23-May-17 16:03 44.324780 -108.760675 289 18617ft 315kts
23-May-17 16:04 44.385865 -108.822658 11 16830ft 290kts
23-May-17 16:05 44.401898 -108.728064 133 15075ft 312kts
23-May-17 16:06 44.334530 -108.663551 186 13302ft 294kts
23-May-17 16:07 44.300773 -108.742107 296 11544ft 256kts
23-May-17 16:08 44.338909 -108.820501 325 10033ft 232kts
23-May-17 16:09 44.387267 -108.867066 318 9372ft 209kts
23-May-17 16:10 44.428591 -108.921636 317 8285ft 199kts
23-May-17 16:11 44.466350 -108.973696 311 7115ft 174kts
23-May-17 16:12 44.488130 -109.020219 303 6455ft 128kts
23-May-17 16:13 44.511491 -109.040012 57 5317ft 132kts
23-May-17 16:14 44.523439 -109.017316 137 5082ft 9kts
23-May-17 16:15 44.522960 -109.016786 142 5088ft 3kts
23-May-17 16:16 44.523580 -109.014571 52 5094ft 17kts
23-May-17 16:17 44.523511 -109.011600 62 5173ft 11kts
23-May-17 16:18 44.524996 -109.009495 26 5158ft 0kts
23-May-17 16:19 44.524996 -109.009495 26 5158ft 0kts

Navigation Log

Ident Type
Flight plan parsing failed, navigation log unavailable